KGYI

North Texas Regional / Perrin Field Airport

Sherman/Denison, Texas, USA
METAR KGYI 230855Z AUTO 09005KT 10SM CLR 12/09 A3020 RMK AO2 T01150085 TSNO
Observed Flight Rules
Oct-23 @ 08:55 UTC (43 minutes ago) Visual Flight Rules
Wind Visibility Clouds
90° at 5 knots 10 miles
  • Clear skies
Temperatures Readings
Current 12°C / 54°F
Dewpoint 9°C / 48°F
Humidity 82%
Altimeter 30.2" Hg
Pressure 1023 hPa
Elevation 228
METAR KGYI 230855Z AUTO 09005KT 10SM CLR 12/09 A3020 RMK AO2 T01150085 TSNO
Observed Flight Rules
Oct-23 @ 08:55 UTC
(43 minutes ago)
VFR
Wind Visibility
90° at 5 knots 10 miles
Clouds
  • Clear skies
Temperature Dewpoint
12°C / 54°F 9°C / 48°F
Humidity Altimeter Pressure
82% 30.2" Hg 1023 hPa